createdAt,value
2018-09-25T00:01:27.717Z,81.42
2018-09-25T00:04:01.194Z,80.53
2018-09-25T00:06:34.813Z,81.28
2018-09-25T00:09:08.242Z,82.33
2018-09-25T00:11:41.622Z,81.48
2018-09-25T00:14:15.387Z,81.59
2018-09-25T00:16:49.021Z,81.11
2018-09-25T00:19:22.498Z,80.98
2018-09-25T00:21:56.074Z,80.43
2018-09-25T00:24:29.674Z,81.93
2018-09-25T00:27:03.075Z,80.61
2018-09-25T00:29:36.619Z,81.34
2018-09-25T00:32:10.150Z,81.39
2018-09-25T00:34:43.755Z,80.92
2018-09-25T00:37:17.338Z,81.21
2018-09-25T00:39:50.941Z,80.73
2018-09-25T00:42:24.409Z,80.29
2018-09-25T00:44:57.841Z,80.89
2018-09-25T00:47:31.218Z,79.93
2018-09-25T00:50:04.822Z,80.93
2018-09-25T00:52:38.258Z,80.62
2018-09-25T00:55:11.971Z,80.83
2018-09-25T00:57:45.454Z,80.95
2018-09-25T01:00:19.199Z,81.12
2018-09-25T01:02:52.639Z,81.36
2018-09-25T01:05:26.178Z,80.73
2018-09-25T01:07:59.706Z,80.80
2018-09-25T01:10:33.192Z,81.09
2018-09-25T01:13:06.834Z,81.85
2018-09-25T01:15:40.280Z,81.55
2018-09-25T01:18:13.833Z,81.82
2018-09-25T01:20:47.266Z,79.98
2018-09-25T01:23:20.800Z,83.13
2018-09-25T01:25:54.285Z,82.61
2018-09-25T01:28:27.843Z,83.26
2018-09-25T01:31:01.250Z,82.27
2018-09-25T01:33:34.757Z,81.98
2018-09-25T01:36:08.411Z,82.51
2018-09-25T01:38:41.989Z,81.43
2018-09-25T01:41:15.592Z,80.60
2018-09-25T01:43:49.199Z,80.87
2018-09-25T01:46:22.793Z,81.35
2018-09-25T01:48:56.238Z,79.86
2018-09-25T01:51:29.738Z,79.99
2018-09-25T01:54:03.242Z,80.08
2018-09-25T01:56:36.743Z,80.71
2018-09-25T01:59:10.502Z,80.81
2018-09-25T02:01:44.081Z,81.53
2018-09-25T02:04:17.600Z,81.73
2018-09-25T02:06:51.199Z,81.06
2018-09-25T02:09:24.554Z,80.26
2018-09-25T02:11:58.157Z,79.67
2018-09-25T02:14:31.697Z,80.99
2018-09-25T02:17:05.136Z,80.48
2018-09-25T02:19:38.586Z,79.71
2018-09-25T02:22:12.239Z,79.89
2018-09-25T02:24:45.650Z,80.22
2018-09-25T02:27:19.168Z,80.85
2018-09-25T02:29:52.708Z,80.86
2018-09-25T02:32:26.180Z,81.25
2018-09-25T02:34:59.698Z,79.97
2018-09-25T02:37:33.231Z,80.30
2018-09-25T02:40:06.686Z,80.83
2018-09-25T02:42:40.004Z,81.01
2018-09-25T02:45:13.600Z,82.54
2018-09-25T02:47:47.312Z,82.70
2018-09-25T02:50:20.934Z,81.00
2018-09-25T02:52:54.311Z,82.86
2018-09-25T02:55:27.778Z,83.45
2018-09-25T02:58:01.319Z,83.35
2018-09-25T03:00:34.844Z,83.28
2018-09-25T03:03:08.414Z,83.63
2018-09-25T03:05:41.914Z,82.35
2018-09-25T03:08:15.496Z,82.97
2018-09-25T03:10:48.993Z,82.75
2018-09-25T03:13:22.708Z,82.56
2018-09-25T03:15:56.178Z,84.08
2018-09-25T03:18:29.726Z,84.24
2018-09-25T03:21:03.046Z,84.61
2018-09-25T03:23:36.691Z,85.68
2018-09-25T03:26:10.262Z,86.86
2018-09-25T03:28:43.762Z,86.46
2018-09-25T03:31:17.294Z,85.41
2018-09-25T03:33:50.770Z,86.12
2018-09-25T03:36:24.347Z,86.37
2018-09-25T03:38:57.673Z,87.09
2018-09-25T03:41:32.353Z,85.71
2018-09-25T03:44:06.026Z,86.56
2018-09-25T03:46:39.374Z,86.21
2018-09-25T03:49:12.969Z,85.23
2018-09-25T03:51:46.566Z,84.39
2018-09-25T03:54:20.004Z,85.13
2018-09-25T03:56:53.557Z,86.56
2018-09-25T03:59:27.390Z,85.97
2018-09-25T04:02:00.870Z,87.00
2018-09-25T04:04:34.561Z,86.82
2018-09-25T04:07:08.123Z,88.97
2018-09-25T04:09:45.512Z,88.73
2018-09-25T04:12:18.989Z,87.33
2018-09-25T04:14:52.601Z,87.06
2018-09-25T04:17:26.106Z,87.80
2018-09-25T04:19:59.575Z,88.35
2018-09-25T04:22:33.173Z,88.55
2018-09-25T04:25:06.701Z,86.85
2018-09-25T04:27:40.239Z,87.46
2018-09-25T04:30:13.781Z,88.19
2018-09-25T04:32:47.288Z,88.64
2018-09-25T04:35:20.866Z,88.57
2018-09-25T04:37:54.544Z,88.02
2018-09-25T04:40:28.142Z,89.09
2018-09-25T04:43:01.667Z,91.52
2018-09-25T04:45:35.125Z,90.68
2018-09-25T04:48:08.728Z,90.25
2018-09-25T04:50:42.210Z,92.52
2018-09-25T04:53:15.641Z,90.97
2018-09-25T04:55:49.102Z,91.56
2018-09-25T04:58:22.456Z,90.69
2018-09-25T05:00:56.046Z,90.53
2018-09-25T05:03:29.426Z,90.29
2018-09-25T05:06:02.961Z,89.65
2018-09-25T05:08:36.458Z,88.90
2018-09-25T05:11:09.890Z,88.19
2018-09-25T05:13:43.382Z,87.35
2018-09-25T05:16:16.800Z,87.83
2018-09-25T05:18:50.420Z,87.62
2018-09-25T05:21:23.829Z,87.49
2018-09-25T05:23:57.303Z,88.05
2018-09-25T05:26:30.846Z,87.27
2018-09-25T05:29:04.286Z,87.61
2018-09-25T05:31:37.886Z,87.38
2018-09-25T05:34:11.553Z,87.53
2018-09-25T05:36:45.039Z,86.62
2018-09-25T05:39:19.633Z,87.41
2018-09-25T05:41:53.049Z,86.14
2018-09-25T05:44:26.824Z,86.87
2018-09-25T05:47:00.251Z,87.89
2018-09-25T05:49:33.834Z,88.30
2018-09-25T05:52:08.594Z,86.59
2018-09-25T05:54:42.385Z,87.43
2018-09-25T05:57:15.874Z,87.39
2018-09-25T05:59:49.497Z,87.68
2018-09-25T06:02:22.975Z,86.19
2018-09-25T06:04:56.604Z,86.80
2018-09-25T06:07:33.920Z,88.70
2018-09-25T06:10:07.543Z,89.47
2018-09-25T06:12:41.061Z,88.95
2018-09-25T06:15:14.726Z,87.85
2018-09-25T06:17:48.230Z,89.58
2018-09-25T06:20:21.765Z,88.72
2018-09-25T06:22:55.193Z,88.62
2018-09-25T06:25:29.123Z,89.29
2018-09-25T06:28:02.561Z,88.37
2018-09-25T06:30:36.076Z,88.03
2018-09-25T06:33:09.648Z,88.34
2018-09-25T06:35:43.262Z,87.69
2018-09-25T06:38:16.858Z,87.56
2018-09-25T06:40:50.671Z,87.17
2018-09-25T06:43:24.287Z,87.44
2018-09-25T06:45:57.844Z,87.82
2018-09-25T06:48:31.383Z,88.75
2018-09-25T06:51:05.165Z,88.07
2018-09-25T06:53:38.860Z,89.75
2018-09-25T06:56:12.501Z,88.95
2018-09-25T06:58:45.976Z,89.57
2018-09-25T07:01:21.919Z,88.32
2018-09-25T07:03:55.533Z,88.89
2018-09-25T07:06:29.082Z,89.41
2018-09-25T07:09:02.510Z,89.22
2018-09-25T07:11:36.054Z,89.62
2018-09-25T07:14:09.586Z,89.64
2018-09-25T07:16:43.086Z,88.62
2018-09-25T07:19:16.637Z,90.43
2018-09-25T07:21:50.142Z,90.34
2018-09-25T07:24:23.667Z,88.48
2018-09-25T07:26:57.189Z,88.67
2018-09-25T07:29:30.575Z,88.51
2018-09-25T07:32:04.263Z,88.71
2018-09-25T07:34:37.805Z,87.76
2018-09-25T07:37:11.327Z,90.93
2018-09-25T07:39:44.801Z,88.08
2018-09-25T07:42:18.398Z,88.18
2018-09-25T07:44:51.832Z,88.84
2018-09-25T07:47:25.299Z,83.87
2018-09-25T07:49:58.782Z,82.10
2018-09-25T07:52:32.246Z,78.64
2018-09-25T07:55:05.607Z,71.81
2018-09-25T07:57:39.181Z,68.56
2018-09-25T08:00:12.939Z,69.33
2018-09-25T08:02:46.311Z,65.00
2018-09-25T08:05:19.903Z,64.38
2018-09-25T08:07:53.277Z,63.81
2018-09-25T08:10:26.878Z,66.92
2018-09-25T08:13:00.376Z,66.72
2018-09-25T08:15:33.869Z,67.86
2018-09-25T08:18:07.335Z,66.15
2018-09-25T08:20:40.873Z,63.23
2018-09-25T08:23:14.386Z,57.23
2018-09-25T08:25:47.878Z,57.30
2018-09-25T08:28:21.371Z,58.72
2018-09-25T08:30:55.002Z,56.61
2018-09-25T08:33:29.571Z,61.45
2018-09-25T08:36:03.037Z,60.11
2018-09-25T08:38:36.709Z,61.19
2018-09-25T08:41:10.107Z,66.03
2018-09-25T08:43:43.647Z,69.96
2018-09-25T08:46:17.132Z,68.71
2018-09-25T08:48:50.705Z,69.46
2018-09-25T08:51:24.190Z,69.32
2018-09-25T08:53:57.758Z,68.72
2018-09-25T08:56:31.182Z,65.78
2018-09-25T08:59:04.501Z,65.54
2018-09-25T09:01:38.122Z,65.20
2018-09-25T09:04:11.941Z,63.92
2018-09-25T09:06:45.432Z,63.45
2018-09-25T09:09:18.974Z,64.95
2018-09-25T09:11:52.497Z,66.09
2018-09-25T09:14:26.111Z,65.06
2018-09-25T09:16:59.673Z,63.49
2018-09-25T09:19:33.352Z,66.25
2018-09-25T09:22:06.906Z,65.77
2018-09-25T09:24:40.410Z,63.83
2018-09-25T09:27:14.009Z,62.20
2018-09-25T09:29:48.044Z,62.91
2018-09-25T09:32:21.660Z,61.01
2018-09-25T09:34:56.368Z,60.01
2018-09-25T09:37:29.992Z,60.24
2018-09-25T09:40:03.605Z,59.42
2018-09-25T09:42:37.093Z,58.44
2018-09-25T09:45:10.633Z,57.33
2018-09-25T09:47:44.027Z,57.84
2018-09-25T09:50:17.629Z,57.50
2018-09-25T09:52:50.925Z,59.44
2018-09-25T09:55:24.483Z,58.14
2018-09-25T09:57:58.059Z,59.32
2018-09-25T10:00:31.686Z,57.60
2018-09-25T10:03:05.289Z,57.51
2018-09-25T10:05:38.878Z,57.27
2018-09-25T10:08:12.452Z,55.97
2018-09-25T10:10:45.924Z,55.76
2018-09-25T10:13:19.517Z,57.10
2018-09-25T10:15:52.993Z,58.54
2018-09-25T10:18:26.579Z,57.54
2018-09-25T10:21:00.146Z,57.46
2018-09-25T10:23:33.631Z,55.94
2018-09-25T10:26:07.103Z,55.54
2018-09-25T10:28:40.666Z,55.83
2018-09-25T10:31:14.194Z,56.19
2018-09-25T10:33:47.806Z,56.40
2018-09-25T10:36:21.502Z,55.51
2018-09-25T10:38:54.957Z,55.38
2018-09-25T10:41:28.534Z,55.34
2018-09-25T10:44:02.911Z,55.76
2018-09-25T10:46:36.608Z,54.61
2018-09-25T10:49:09.965Z,54.10
2018-09-25T10:51:43.525Z,52.92
2018-09-25T10:54:16.874Z,52.82
2018-09-25T10:56:50.229Z,53.74
2018-09-25T10:59:23.745Z,52.66
2018-09-25T11:01:57.427Z,54.43
2018-09-25T11:04:31.138Z,54.34
2018-09-25T11:07:04.657Z,53.29
2018-09-25T11:09:38.162Z,53.46
2018-09-25T11:12:11.342Z,53.12
2018-09-25T11:14:44.810Z,50.93
2018-09-25T11:17:18.482Z,51.37
2018-09-25T11:19:51.867Z,51.95
2018-09-25T11:22:25.362Z,50.88
2018-09-25T11:24:58.970Z,51.26
2018-09-25T11:27:32.611Z,52.54
2018-09-25T11:30:06.243Z,51.90
2018-09-25T11:32:39.706Z,52.81
2018-09-25T11:35:13.319Z,51.69
2018-09-25T11:37:46.883Z,51.90
2018-09-25T11:40:20.395Z,51.65
2018-09-25T11:42:53.895Z,51.73
2018-09-25T11:45:27.362Z,50.92
2018-09-25T11:48:00.746Z,51.25
2018-09-25T11:50:34.466Z,51.14
2018-09-25T11:53:08.054Z,51.14
2018-09-25T11:55:41.605Z,51.28
2018-09-25T11:58:15.075Z,49.97
2018-09-25T12:00:48.681Z,49.78
2018-09-25T12:03:22.337Z,48.96
2018-09-25T12:05:55.934Z,49.28
2018-09-25T12:08:29.397Z,49.41
2018-09-25T12:11:02.957Z,48.96
2018-09-25T12:13:36.517Z,48.73
2018-09-25T12:16:10.010Z,49.85
2018-09-25T12:18:43.520Z,49.24
2018-09-25T12:21:16.931Z,50.19
2018-09-25T12:23:50.485Z,48.88
2018-09-25T12:26:23.929Z,50.83
2018-09-25T12:28:57.398Z,49.93
2018-09-25T12:31:30.975Z,50.04
2018-09-25T12:34:04.654Z,50.44
2018-09-25T12:36:38.373Z,48.25
2018-09-25T12:39:13.427Z,48.81
2018-09-25T12:41:47.158Z,46.21
2018-09-25T12:44:20.774Z,46.72
2018-09-25T12:46:54.130Z,46.75
2018-09-25T12:49:27.821Z,46.80
2018-09-25T12:52:01.267Z,47.82
2018-09-25T12:54:34.931Z,46.16
2018-09-25T12:57:08.602Z,45.54
2018-09-25T12:59:42.081Z,45.50
2018-09-25T13:02:15.697Z,44.67
2018-09-25T13:04:50.389Z,44.66
2018-09-25T13:07:23.888Z,44.47
2018-09-25T13:09:57.430Z,43.28
2018-09-25T13:12:30.974Z,44.93
2018-09-25T13:15:04.662Z,43.55
2018-09-25T13:17:38.106Z,42.80
2018-09-25T13:20:11.661Z,44.76
2018-09-25T13:22:45.392Z,43.75
2018-09-25T13:25:18.856Z,42.03
2018-09-25T13:27:52.216Z,41.25
2018-09-25T13:30:25.754Z,41.50
2018-09-25T13:32:59.343Z,41.33
2018-09-25T13:35:32.953Z,41.78
2018-09-25T13:38:06.326Z,41.32
2018-09-25T13:40:39.821Z,41.51
2018-09-25T13:43:13.358Z,42.14
2018-09-25T13:45:46.753Z,41.29
2018-09-25T13:48:20.225Z,41.54
2018-09-25T13:50:53.705Z,40.96
2018-09-25T13:53:27.242Z,40.24
2018-09-25T13:56:00.827Z,41.00
2018-09-25T13:58:34.322Z,41.63
2018-09-25T14:01:07.784Z,41.04
2018-09-25T14:03:41.284Z,39.92
2018-09-25T14:06:14.880Z,41.36
2018-09-25T14:08:48.302Z,40.41
2018-09-25T14:11:21.790Z,40.25
2018-09-25T14:13:55.248Z,40.69
2018-09-25T14:16:28.731Z,40.42
2018-09-25T14:19:02.274Z,40.41
2018-09-25T14:21:35.829Z,38.39
2018-09-25T14:24:09.392Z,39.22
2018-09-25T14:26:42.844Z,38.17
2018-09-25T14:29:16.509Z,39.48
2018-09-25T14:31:50.136Z,39.11
2018-09-25T14:34:23.778Z,39.42
2018-09-25T14:36:57.597Z,41.09
2018-09-25T14:39:31.034Z,39.88
2018-09-25T14:42:04.554Z,39.61
2018-09-25T14:44:38.005Z,38.33
2018-09-25T14:47:11.819Z,38.90
2018-09-25T14:49:45.181Z,40.02
2018-09-25T14:52:18.562Z,39.24
2018-09-25T14:54:52.119Z,39.25
2018-09-25T14:57:25.607Z,40.34
2018-09-25T14:59:59.133Z,40.37
2018-09-25T15:02:32.583Z,39.84
2018-09-25T15:05:05.954Z,39.26
2018-09-25T15:07:39.350Z,39.45
2018-09-25T15:10:12.907Z,38.11
2018-09-25T15:12:46.318Z,38.92
2018-09-25T15:15:19.735Z,38.61
2018-09-25T15:17:53.236Z,39.75
2018-09-25T15:20:26.757Z,40.63
2018-09-25T15:23:00.378Z,40.85
2018-09-25T15:25:33.783Z,40.75
2018-09-25T15:28:07.193Z,40.06
2018-09-25T15:30:40.754Z,39.86
2018-09-25T15:33:14.276Z,41.11
2018-09-25T15:35:47.940Z,41.03
2018-09-25T15:38:21.465Z,42.25
2018-09-25T15:40:55.124Z,41.66
2018-09-25T15:43:28.471Z,41.32
2018-09-25T15:46:02.043Z,41.67
2018-09-25T15:48:35.539Z,40.65
2018-09-25T15:51:09.286Z,41.19
2018-09-25T15:53:42.910Z,41.49
2018-09-25T15:56:16.511Z,41.96
2018-09-25T15:58:50.185Z,41.60
2018-09-25T16:01:23.639Z,42.86
2018-09-25T16:03:57.172Z,43.74
2018-09-25T16:06:30.661Z,44.27
2018-09-25T16:09:04.242Z,42.87
2018-09-25T16:11:37.891Z,43.97
2018-09-25T16:14:11.587Z,45.28
2018-09-25T16:16:44.986Z,43.75
2018-09-25T16:19:18.570Z,45.41
2018-09-25T16:21:52.290Z,45.22
2018-09-25T16:24:25.867Z,44.65
2018-09-25T16:26:59.308Z,45.29
2018-09-25T16:29:32.829Z,45.21
2018-09-25T16:32:06.305Z,45.42
2018-09-25T16:34:39.914Z,46.71
2018-09-25T16:37:13.393Z,46.76
2018-09-25T16:39:46.890Z,47.03
2018-09-25T16:42:20.377Z,47.70
2018-09-25T16:44:53.849Z,48.29
2018-09-25T16:47:27.403Z,49.03
2018-09-25T16:50:00.859Z,49.71
2018-09-25T16:52:34.577Z,49.65
2018-09-25T16:55:08.139Z,50.14
2018-09-25T16:57:41.755Z,49.61
2018-09-25T17:00:15.298Z,50.72
2018-09-25T17:02:48.833Z,51.26
2018-09-25T17:05:22.158Z,52.15
2018-09-25T17:07:55.726Z,53.17
2018-09-25T17:10:29.330Z,53.27
2018-09-25T17:13:02.838Z,53.68
2018-09-25T17:15:36.456Z,54.35
2018-09-25T17:18:10.101Z,55.40
2018-09-25T17:20:43.539Z,55.79
2018-09-25T17:23:17.125Z,56.00
2018-09-25T17:25:50.769Z,55.54
2018-09-25T17:28:24.423Z,57.23
2018-09-25T17:30:58.055Z,56.76
2018-09-25T17:33:31.819Z,58.18
2018-09-25T17:36:05.323Z,57.53
2018-09-25T17:38:38.925Z,58.45
2018-09-25T17:41:12.582Z,59.60
2018-09-25T17:43:45.988Z,59.17
2018-09-25T17:46:19.644Z,59.00
2018-09-25T17:48:53.158Z,60.98
2018-09-25T17:51:26.558Z,59.63
2018-09-25T17:54:00.078Z,60.58
2018-09-25T17:56:33.645Z,60.67
2018-09-25T17:59:07.078Z,61.67
2018-09-25T18:01:40.643Z,62.28
2018-09-25T18:04:14.143Z,62.11
2018-09-25T18:06:47.590Z,63.16
2018-09-25T18:09:21.169Z,63.29
2018-09-25T18:11:54.708Z,64.06
2018-09-25T18:14:28.242Z,63.96
2018-09-25T18:17:01.690Z,64.40
2018-09-25T18:19:35.079Z,64.45
2018-09-25T18:22:08.777Z,65.70
2018-09-25T18:24:42.134Z,64.97
2018-09-25T18:27:15.861Z,64.81
2018-09-25T18:29:49.215Z,65.62
2018-09-25T18:32:22.713Z,65.54
2018-09-25T18:34:56.243Z,67.51
2018-09-25T18:37:29.829Z,66.59
2018-09-25T18:40:03.513Z,67.33
2018-09-25T18:42:36.975Z,67.47
2018-09-25T18:45:10.656Z,66.42
2018-09-25T18:47:44.218Z,66.60
2018-09-25T18:50:17.779Z,66.67
2018-09-25T18:52:51.365Z,67.53
2018-09-25T18:55:24.996Z,66.79
2018-09-25T18:57:58.419Z,66.49
2018-09-25T19:00:31.812Z,66.30
2018-09-25T19:03:05.455Z,67.83
2018-09-25T19:05:39.061Z,67.19
2018-09-25T19:08:12.538Z,68.57
2018-09-25T19:10:46.159Z,68.23
2018-09-25T19:13:19.558Z,66.98
2018-09-25T19:15:53.090Z,67.65
2018-09-25T19:18:26.610Z,68.30
2018-09-25T19:21:00.082Z,67.42
2018-09-25T19:23:33.551Z,67.03
2018-09-25T19:26:07.130Z,67.32
2018-09-25T19:28:40.498Z,69.15
2018-09-25T19:31:14.106Z,69.45
2018-09-25T19:33:47.740Z,70.04
2018-09-25T19:36:21.274Z,68.30
2018-09-25T19:38:54.801Z,68.99
2018-09-25T19:41:28.296Z,69.06
2018-09-25T19:44:01.790Z,69.70
2018-09-25T19:46:35.342Z,69.31
2018-09-25T19:49:08.849Z,70.67
2018-09-25T19:51:42.527Z,72.17
2018-09-25T19:54:16.046Z,71.76
2018-09-25T19:56:49.737Z,71.89
2018-09-25T19:59:23.334Z,71.97
2018-09-25T20:01:56.973Z,72.89
2018-09-25T20:04:30.502Z,74.93
2018-09-25T20:07:04.170Z,75.25
2018-09-25T20:09:37.701Z,75.26
2018-09-25T20:12:11.214Z,75.20
2018-09-25T20:14:48.394Z,75.77
2018-09-25T20:17:21.921Z,75.57
2018-09-25T20:19:55.427Z,75.50
2018-09-25T20:22:35.079Z,74.87
2018-09-25T20:25:08.619Z,75.16
2018-09-25T20:27:42.153Z,75.46
2018-09-25T20:30:15.787Z,75.49
2018-09-25T20:32:49.360Z,75.02
2018-09-25T20:35:32.022Z,75.68
2018-09-25T20:38:05.744Z,75.99
2018-09-25T20:40:39.419Z,75.74
2018-09-25T20:43:13.073Z,76.54
2018-09-25T20:45:46.588Z,77.17
2018-09-25T20:48:20.167Z,77.04
2018-09-25T20:50:53.813Z,77.03
2018-09-25T20:53:27.213Z,76.90
2018-09-25T20:56:00.677Z,77.18
2018-09-25T20:58:34.283Z,76.96
2018-09-25T21:01:07.883Z,78.00
2018-09-25T21:03:41.507Z,76.25
2018-09-25T21:06:15.125Z,77.38
2018-09-25T21:08:48.507Z,76.88
2018-09-25T21:11:22.046Z,77.40
2018-09-25T21:13:55.515Z,76.93
2018-09-25T21:16:29.175Z,77.15
2018-09-25T21:19:02.734Z,76.86
2018-09-25T21:21:36.263Z,77.08
2018-09-25T21:24:09.997Z,77.78
2018-09-25T21:26:43.369Z,77.88
2018-09-25T21:29:16.941Z,77.70
2018-09-25T21:31:50.523Z,76.78
2018-09-25T21:36:56.652Z,78.93
2018-09-25T21:39:30.186Z,78.43
2018-09-25T21:42:03.894Z,78.96
2018-09-25T21:44:37.435Z,78.87
2018-09-25T21:47:11.002Z,78.73
2018-09-25T21:49:44.338Z,79.77
2018-09-25T21:52:17.864Z,79.80
2018-09-25T21:54:51.386Z,79.93
2018-09-25T21:57:25.197Z,78.30
2018-09-25T21:59:58.383Z,78.13
2018-09-25T22:02:31.837Z,77.99
2018-09-25T22:05:05.278Z,78.10
2018-09-25T22:07:38.769Z,78.46
2018-09-25T22:10:12.174Z,78.98
2018-09-25T22:12:45.774Z,78.77
2018-09-25T22:15:19.408Z,78.81
2018-09-25T22:17:52.927Z,79.54
2018-09-25T22:20:26.438Z,78.90
2018-09-25T22:22:59.929Z,78.82
2018-09-25T22:25:33.247Z,78.90
2018-09-25T22:28:06.629Z,79.73
2018-09-25T22:30:40.090Z,78.79
2018-09-25T22:33:13.566Z,78.86
2018-09-25T22:35:47.172Z,81.07
2018-09-25T22:38:20.817Z,80.92
2018-09-25T22:40:54.231Z,79.71
2018-09-25T22:43:27.727Z,80.04
2018-09-25T22:46:01.179Z,80.43
2018-09-25T22:48:34.826Z,80.65
2018-09-25T22:51:08.410Z,82.33
2018-09-25T22:53:41.886Z,82.77
2018-09-25T22:56:15.218Z,83.50
2018-09-25T22:58:48.809Z,81.98
2018-09-25T23:01:22.157Z,83.29
2018-09-25T23:03:55.676Z,84.02
2018-09-25T23:06:29.155Z,84.52
2018-09-25T23:09:02.654Z,83.48
2018-09-25T23:11:36.130Z,84.02
2018-09-25T23:14:09.682Z,81.91
2018-09-25T23:16:43.274Z,84.27
2018-09-25T23:19:16.718Z,84.40
2018-09-25T23:21:50.211Z,84.97
2018-09-25T23:24:23.684Z,84.89
2018-09-25T23:26:57.081Z,84.29
2018-09-25T23:29:30.872Z,84.15
2018-09-25T23:32:04.453Z,84.71
2018-09-25T23:34:38.145Z,84.05
2018-09-25T23:37:11.682Z,83.01
2018-09-25T23:40:00.013Z,82.14
2018-09-25T23:42:35.656Z,83.35
2018-09-25T23:45:09.369Z,82.83
2018-09-25T23:48:41.393Z,83.50
2018-09-25T23:51:14.978Z,82.70
2018-09-25T23:54:46.072Z,82.32
2018-09-25T23:57:19.154Z,81.10
2018-09-25T23:59:53.626Z,81.74
